Time;durP1;ratioP1;P1;durP2;ratioP2;P2;SDS_P1;SDS_P2;PMS_P1;PMS_P2;Temp;Humidity;BMP_temperature;BMP_pressure;BME280_temperature;BME280_humidity;BME280_pressure;Samples;Min_cycle;Max_cycle;Signal;HPM_P1;HPM_P2
2023/02/19 00:01:31;;;;;;;6.22;4.55;;;10.70;99.90;;;9.70;100.00;97861.88;5033090;28;20469;-79
2023/02/19 00:03:59;;;;;;;6.63;4.50;;;10.60;99.90;;;9.67;100.00;97863.19;5033226;28;20407;-78
2023/02/19 00:06:28;;;;;;;5.90;4.70;;;10.60;99.90;;;9.70;100.00;97854.75;5033271;28;20403;-78
2023/02/19 00:08:54;;;;;;;5.43;4.22;;;10.60;99.90;;;9.70;100.00;97849.47;5033241;28;20500;-78
2023/02/19 00:11:25;;;;;;;4.63;3.88;;;10.60;99.90;;;9.62;100.00;97855.13;5033104;28;20411;-78
2023/02/19 00:13:54;;;;;;;5.20;4.00;;;10.50;99.90;;;9.65;100.00;97838.00;5032087;28;20426;-79
2023/02/19 00:16:24;;;;;;;5.45;3.97;;;10.50;99.90;;;9.63;100.00;97834.78;5033157;28;20502;-79
2023/02/19 00:18:51;;;;;;;5.13;3.53;;;10.50;99.90;;;9.64;100.00;97849.59;5031757;28;20849;-79
2023/02/19 00:21:18;;;;;;;6.47;3.45;;;10.50;99.90;;;9.56;100.00;97837.56;5032739;28;20502;-78
2023/02/19 00:23:48;;;;;;;4.77;3.53;;;10.40;99.90;;;9.53;100.00;97840.69;5032674;28;20418;-78
2023/02/19 00:26:14;;;;;;;4.88;3.60;;;10.50;99.90;;;9.58;100.00;97837.34;5032897;28;20407;-78
2023/02/19 00:28:40;;;;;;;5.70;3.53;;;10.50;99.90;;;9.72;100.00;97828.09;5032626;28;20411;-78
2023/02/19 00:31:12;;;;;;;4.80;3.25;;;10.60;99.90;;;9.67;100.00;97828.81;5032665;28;20952;-78
2023/02/19 00:33:39;;;;;;;4.05;3.47;;;10.50;99.90;;;9.65;100.00;97833.53;5032437;28;20491;-78
2023/02/19 00:36:06;;;;;;;5.35;3.33;;;10.60;99.90;;;9.72;100.00;97843.97;5032659;28;20497;-78
2023/02/19 00:38:36;;;;;;;4.30;3.10;;;10.60;99.90;;;9.85;100.00;97848.19;5031239;28;20407;-78
2023/02/19 00:41:17;;;;;;;3.35;2.95;;;10.60;99.90;;;9.72;100.00;97843.97;5032517;28;20404;-78
2023/02/19 00:43:45;;;;;;;4.22;3.13;;;10.60;99.90;;;9.76;100.00;97844.31;5032452;28;20465;-78
2023/02/19 00:46:11;;;;;;;5.32;3.20;;;10.70;99.90;;;9.65;100.00;97854.66;5032603;28;20927;-78
2023/02/19 00:48:38;;;;;;;6.60;3.07;;;10.60;99.90;;;9.72;100.00;97843.97;5032535;28;20411;-78
2023/02/19 00:51:05;;;;;;;3.58;2.88;;;10.60;99.90;;;9.77;100.00;97836.16;5031447;28;20769;-78
2023/02/19 00:53:31;;;;;;;4.15;3.00;;;10.60;99.90;;;9.82;100.00;97846.00;5032139;28;20403;-78
2023/02/19 00:55:57;;;;;;;4.60;3.00;;;10.70;99.90;;;10.02;100.00;97841.91;5032325;28;20804;-78
2023/02/19 00:58:23;;;;;;;3.77;2.73;;;10.80;99.90;;;9.99;100.00;97837.09;5032181;28;20446;-78
2023/02/19 01:00:49;;;;;;;4.30;2.67;;;10.90;99.90;;;10.00;100.00;97825.47;5032250;28;20411;-78
2023/02/19 01:03:14;;;;;;;4.32;2.70;;;10.80;99.90;;;9.78;100.00;97829.00;5031891;28;20526;-78
2023/02/19 01:05:42;;;;;;;2.72;2.45;;;10.70;99.90;;;9.74;100.00;97814.66;5032051;28;20418;-79
2023/02/19 01:08:08;;;;;;;4.07;3.00;;;10.60;99.90;;;9.83;100.00;97827.28;5032086;28;20407;-78
2023/02/19 01:10:33;;;;;;;5.40;2.55;;;10.60;99.90;;;9.67;100.00;97825.38;5032104;28;20893;-78
2023/02/19 01:12:59;;;;;;;2.58;2.38;;;10.50;99.90;;;9.65;100.00;97815.03;5031760;28;20409;-78
2023/02/19 01:15:25;;;;;;;3.17;2.70;;;10.50;99.90;;;9.50;100.00;97804.16;5031995;28;20487;-79
2023/02/19 01:17:51;;;;;;;4.95;2.53;;;10.40;99.90;;;9.67;100.00;97810.31;5031973;28;20413;-78
2023/02/19 01:20:17;;;;;;;4.68;2.65;;;10.50;99.90;;;9.71;100.00;97810.63;5031738;28;20494;-78
2023/02/19 01:22:45;;;;;;;4.50;3.00;;;10.50;99.90;;;9.73;100.00;97813.03;5031576;28;20907;-78
2023/02/19 01:25:11;;;;;;;2.80;2.45;;;10.60;99.90;;;9.66;100.00;97813.19;5031784;28;20835;-78
2023/02/19 01:27:37;;;;;;;2.80;2.30;;;10.60;99.90;;;9.57;100.00;97807.47;5031733;28;20399;-79
2023/02/19 01:30:03;;;;;;;3.42;2.80;;;10.40;99.90;;;9.66;100.00;97803.41;5031502;28;20962;-79
2023/02/19 01:32:29;;;;;;;5.13;2.47;;;10.50;99.90;;;9.53;100.00;97802.88;5031315;28;20418;-79
2023/02/19 01:34:55;;;;;;;4.75;2.35;;;10.40;99.90;;;9.68;100.00;97798.69;5031430;28;20449;-79
2023/02/19 01:37:21;;;;;;;2.75;2.30;;;10.50;99.90;;;9.64;100.00;97802.84;5031505;28;20892;-79
2023/02/19 01:39:48;;;;;;;2.83;2.33;;;10.50;99.90;;;9.67;100.00;97805.03;5031448;28;20410;-79
2023/02/19 01:42:16;;;;;;;2.65;2.42;;;10.50;99.90;;;9.70;100.00;97798.44;5031155;28;20449;-79
2023/02/19 01:45:19;;;;;;;3.38;2.53;;;10.60;99.90;;;9.59;100.00;97794.00;5031361;28;20414;-79
2023/02/19 01:47:48;;;;;;;2.88;2.30;;;10.50;99.90;;;9.55;100.00;97798.94;5031366;28;20399;-79
2023/02/19 01:50:15;;;;;;;2.67;2.40;;;10.40;99.90;;;9.63;100.00;97803.06;5031281;28;20404;-79
2023/02/19 01:52:41;;;;;;;3.55;2.45;;;10.40;99.90;;;9.59;100.00;97810.69;5030920;28;20876;-79
2023/02/19 01:55:12;;;;;;;3.22;2.88;;;10.50;99.90;;;9.78;100.00;97811.28;5031211;28;20423;-79
2023/02/19 01:57:44;;;;;;;3.33;2.45;;;10.60;99.90;;;9.68;100.00;97803.19;5031222;28;20403;-78
2023/02/19 02:00:14;;;;;;;3.10;2.30;;;10.60;99.90;;;9.59;100.00;97800.09;5031107;28;20877;-79
2023/02/19 02:02:43;;;;;;;2.78;2.50;;;10.50;99.90;;;9.51;100.00;97794.38;5030661;28;20434;-79
2023/02/19 02:05:41;;;;;;;3.00;2.20;;;10.40;99.90;;;9.50;100.00;97787.47;5029715;28;20403;-79
2023/02/19 02:10:53;;;;;;;2.97;2.30;;;10.30;99.90;;;9.55;100.00;97796.31;5031126;28;20803;-79
2023/02/19 02:13:20;;;;;;;3.28;2.55;;;10.40;99.90;;;9.46;100.00;97803.03;5030671;28;20490;-78
2023/02/19 02:15:58;;;;;;;4.05;2.28;;;10.30;99.90;;;9.42;100.00;97801.84;5030877;28;20411;-79
2023/02/19 02:18:36;;;;;;;2.90;2.30;;;10.30;99.90;;;9.40;100.00;97790.72;5030877;28;20578;-79
2023/02/19 02:21:38;;;;;;;2.60;2.30;;;10.30;99.90;;;9.39;100.00;97794.41;5030686;28;20439;-80
2023/02/19 02:24:29;;;;;;;3.53;2.70;;;10.30;99.90;;;9.30;100.00;97795.81;4994776;28;20426;-80
2023/02/19 02:27:17;;;;;;;3.10;2.30;;;10.10;99.90;;;9.29;100.00;97781.78;5029500;28;20446;-81
2023/02/19 02:30:30;;;;;;;3.13;2.67;;;10.20;99.90;;;9.39;100.00;97773.28;5030661;28;20862;-79
2023/02/19 02:33:05;;;;;;;4.47;2.72;;;10.20;99.90;;;9.21;100.00;97773.41;4988807;28;20416;-80
2023/02/19 02:35:38;;;;;;;4.13;3.30;;;10.20;99.90;;;9.21;100.00;97773.41;4988296;28;21779;-80
2023/02/19 02:38:10;;;;;;;5.00;3.17;;;10.10;99.90;;;9.02;100.00;97771.97;5015151;28;20415;-79
2023/02/19 02:40:39;;;;;;;4.80;3.42;;;9.90;99.90;;;8.85;100.00;97771.84;5029281;28;20410;-78
2023/02/19 02:43:05;;;;;;;6.15;3.47;;;9.80;99.90;;;8.77;100.00;97762.44;5030243;28;20439;-79
2023/02/19 02:45:36;;;;;;;4.90;3.57;;;9.70;99.90;;;8.64;100.00;97765.31;5030315;28;20417;-78
2023/02/19 02:48:13;;;;;;;4.65;3.67;;;9.50;99.90;;;8.48;100.00;97758.09;5029042;28;20415;-78
2023/02/19 02:50:44;;;;;;;4.70;3.70;;;9.40;99.90;;;8.57;100.00;97769.09;5030347;28;20488;-78
2023/02/19 02:56:03;;;;;;;5.40;3.60;;;9.60;99.90;;;8.62;100.00;97766.56;5030369;28;21071;-78
2023/02/19 02:58:30;;;;;;;6.32;3.60;;;9.60;99.90;;;8.68;100.00;97765.66;5030064;28;20427;-78
2023/02/19 03:03:53;;;;;;;4.97;3.70;;;9.50;99.90;;;8.68;100.00;97768.28;5030276;28;20845;-79
2023/02/19 03:06:23;;;;;;;4.78;3.60;;;9.60;99.90;;;8.63;100.00;97766.34;5030618;28;20457;-78
2023/02/19 03:08:54;;;;;;;4.25;3.75;;;9.60;99.90;;;8.72;100.00;97770.22;5030085;28;20395;-79
2023/02/19 03:19:51;;;;;;;4.20;3.53;;;9.50;99.90;;;8.43;100.00;97768.50;5034215;28;20521;-78
2023/02/19 03:22:23;;;;;;;6.43;4.05;;;9.40;99.90;;;8.42;100.00;97772.97;5033920;28;20491;-77
2023/02/19 03:27:50;;;;;;;7.03;4.70;;;9.20;99.90;;;8.21;100.00;97756.84;5034341;28;20430;-78
2023/02/19 03:30:21;;;;;;;5.75;4.38;;;9.10;99.90;;;8.19;100.00;97762.38;5034035;28;20403;-77
2023/02/19 03:32:54;;;;;;;5.85;4.30;;;9.10;99.90;;;8.14;100.00;97759.59;5033823;28;20400;-77
2023/02/19 03:35:24;;;;;;;6.68;4.88;;;9.10;99.90;;;8.14;100.00;97765.66;5033930;28;20414;-77
2023/02/19 03:37:59;;;;;;;8.02;4.90;;;9.10;99.90;;;8.13;100.00;97756.13;5033854;28;20403;-77
2023/02/19 03:40:29;;;;;;;9.93;5.20;;;9.10;99.90;;;8.12;100.00;97759.00;5033766;28;20407;-77
2023/02/19 03:43:05;;;;;;;9.23;5.45;;;9.10;99.90;;;8.18;100.00;97758.13;5033403;28;20449;-77
2023/02/19 03:45:43;;;;;;;7.25;5.10;;;9.10;99.90;;;8.21;100.00;97756.84;5033633;28;20436;-77
2023/02/19 03:48:23;;;;;;;7.67;4.80;;;9.20;99.90;;;8.22;100.00;97766.38;5033575;28;20966;-77
2023/02/19 03:50:58;;;;;;;9.05;5.47;;;9.10;99.90;;;8.09;100.00;97767.38;5033495;28;20410;-77
2023/02/19 03:53:30;;;;;;;10.18;5.40;;;9.00;99.90;;;8.03;100.00;97765.66;5033249;28;20875;-76
2023/02/19 03:56:10;;;;;;;9.35;5.47;;;9.00;99.90;;;8.01;100.00;97771.13;5033434;28;20438;-77
2023/02/19 03:58:43;;;;;;;11.65;5.82;;;9.00;99.90;;;8.02;100.00;97771.94;5033241;28;21034;-77
2023/02/19 04:01:16;;;;;;;11.43;6.10;;;9.00;99.90;;;8.01;100.00;97767.69;5033291;28;20406;-77
2023/02/19 04:03:49;;;;;;;10.35;5.35;;;9.00;99.90;;;8.03;100.00;97770.91;5033167;28;20395;-77
2023/02/19 04:06:24;;;;;;;8.85;5.65;;;9.00;99.90;;;8.10;100.00;97776.91;5033540;28;20457;-77
2023/02/19 04:08:54;;;;;;;9.32;5.25;;;9.00;99.90;;;8.08;100.00;97778.94;5032021;28;20411;-76
2023/02/19 04:11:22;;;;;;;8.95;4.72;;;9.00;99.90;;;8.09;100.00;97784.00;5033115;28;20753;-76
2023/02/19 04:13:55;;;;;;;12.15;6.05;;;9.10;99.90;;;8.10;100.00;97782.19;5033135;28;20395;-77
2023/02/19 04:16:26;;;;;;;11.30;5.93;;;9.10;99.90;;;8.12;100.00;97788.81;5033088;28;20578;-77
2023/02/19 04:18:58;;;;;;;9.65;5.00;;;9.10;99.90;;;8.12;100.00;97785.38;5032979;28;20434;-77
2023/02/19 04:21:25;;;;;;;14.30;6.00;;;9.10;99.90;;;8.10;100.00;97798.81;5032907;28;20399;-77
2023/02/19 04:23:51;;;;;;;9.38;5.00;;;9.10;99.90;;;8.14;100.00;97797.31;5032800;28;20414;-77
2023/02/19 04:26:21;;;;;;;8.00;4.90;;;9.10;99.90;;;8.12;100.00;97793.28;5031700;28;20777;-77
2023/02/19 04:28:47;;;;;;;9.02;4.75;;;9.10;99.90;;;8.13;100.00;97792.25;5032711;28;20402;-77
2023/02/19 04:31:13;;;;;;;7.18;4.35;;;9.10;99.90;;;8.09;100.00;97796.38;5032701;28;20434;-77
2023/02/19 04:33:39;;;;;;;7.28;4.03;;;9.10;99.90;;;8.08;100.00;97803.47;5032601;28;20426;-77
2023/02/19 04:36:10;;;;;;;5.60;3.70;;;9.10;99.90;;;8.08;100.00;97813.22;5031340;28;20988;-76
2023/02/19 04:38:36;;;;;;;6.97;3.80;;;9.10;99.90;;;8.06;100.00;97812.63;5036110;28;20399;-77
2023/02/19 04:41:02;;;;;;;8.30;3.97;;;9.00;99.90;;;8.02;100.00;97814.13;5032262;28;20427;-79
2023/02/19 04:43:28;;;;;;;5.15;3.40;;;9.00;99.90;;;8.05;100.00;97808.38;5048524;28;20393;-78
2023/02/19 04:46:00;;;;;;;4.72;3.35;;;9.00;99.90;;;8.10;100.00;97819.09;5035797;28;20398;-78
2023/02/19 04:48:26;;;;;;;4.40;3.10;;;9.10;99.90;;;8.10;100.00;97816.44;5060017;28;20970;-78
2023/02/19 04:50:51;;;;;;;5.28;3.00;;;9.00;99.90;;;8.07;100.00;97815.06;5043550;28;20397;-78
2023/02/19 04:53:19;;;;;;;4.32;2.92;;;9.00;99.90;;;8.11;100.00;97825.97;5037110;28;20411;-77
2023/02/19 04:55:46;;;;;;;3.90;2.60;;;9.10;99.90;;;8.08;100.00;97824.56;5048575;28;20508;-78
2023/02/19 04:58:13;;;;;;;4.63;2.40;;;9.00;99.90;;;8.11;100.00;97820.69;5037932;28;20409;-77
2023/02/19 05:00:39;;;;;;;2.70;2.10;;;9.10;99.90;;;8.22;100.00;97833.09;5042628;28;20456;-77
2023/02/19 05:03:05;;;;;;;3.03;2.08;;;9.20;99.90;;;8.15;100.00;97832.38;5044755;28;20492;-76
2023/02/19 05:05:30;;;;;;;2.50;2.13;;;9.10;99.90;;;8.12;100.00;97838.09;5035468;28;20395;-77
2023/02/19 05:07:56;;;;;;;2.42;1.95;;;9.10;99.90;;;8.25;100.00;97830.03;5048329;28;20568;-76
2023/02/19 05:10:24;;;;;;;2.50;1.60;;;9.10;99.90;;;8.23;100.00;97824.16;5039376;28;20492;-77
2023/02/19 05:12:50;;;;;;;2.70;1.70;;;9.20;99.90;;;8.21;100.00;97833.31;5041900;28;20407;-76
2023/02/19 05:15:16;;;;;;;1.70;1.60;;;9.20;99.90;;;8.16;100.00;97834.00;5045182;28;20837;-77
2023/02/19 05:17:42;;;;;;;2.63;1.90;;;9.10;99.90;;;8.15;100.00;97848.22;5035320;28;20448;-76
2023/02/19 05:20:09;;;;;;;2.05;1.60;;;9.10;99.90;;;8.12;100.00;97848.66;5047704;28;20893;-77
2023/02/19 05:22:35;;;;;;;2.03;1.50;;;9.10;99.90;;;8.14;100.00;97850.03;5039129;28;20401;-77
2023/02/19 05:25:01;;;;;;;2.10;1.40;;;9.10;99.90;;;8.15;100.00;97849.03;5040653;28;20399;-75
2023/02/19 05:27:29;;;;;;;1.63;1.50;;;9.10;99.90;;;8.26;100.00;97847.47;5032447;28;20498;-74
2023/02/19 05:29:55;;;;;;;1.30;1.20;;;9.20;99.90;;;8.21;100.00;97839.41;5055765;22;20516;-76
2023/02/19 05:32:21;;;;;;;1.30;1.10;;;9.20;99.90;;;8.20;100.00;97839.63;5042603;28;20391;-76
2023/02/19 05:34:47;;;;;;;2.40;1.30;;;9.20;99.90;;;8.19;100.00;97841.47;5043606;28;20420;-74
2023/02/19 05:37:13;;;;;;;1.40;1.30;;;9.20;99.90;;;8.17;100.00;97851.44;5048927;28;20479;-76
2023/02/19 05:39:39;;;;;;;1.35;1.25;;;9.10;99.90;;;8.22;100.00;97862.09;5032590;28;20483;-77
2023/02/19 05:42:05;;;;;;;1.27;1.10;;;9.10;99.90;;;8.20;100.00;97864.16;5017776;28;20929;-76
2023/02/19 05:44:32;;;;;;;1.00;1.00;;;9.20;99.90;;;8.17;100.00;97864.63;5019716;28;20514;-76
2023/02/19 05:46:58;;;;;;;1.27;1.17;;;9.20;99.90;;;8.15;100.00;97856.94;5022546;28;20416;-76
2023/02/19 05:49:24;;;;;;;1.42;1.20;;;9.10;99.90;;;8.17;100.00;97867.25;5020859;28;20771;-76
2023/02/19 05:51:50;;;;;;;1.13;1.13;;;9.10;99.90;;;8.18;100.00;97871.50;5021519;28;20435;-76
2023/02/19 05:54:16;;;;;;;1.00;1.00;;;9.10;99.90;;;8.15;100.00;97866.66;5021074;28;20411;-76
2023/02/19 05:56:41;;;;;;;0.95;0.95;;;9.10;99.90;;;8.16;100.00;97869.09;5021633;28;20414;-76
2023/02/19 05:59:15;;;;;;;1.10;1.10;;;9.10;99.90;;;8.15;100.00;97872.75;5020719;28;20423;-76
2023/02/19 06:01:43;;;;;;;1.77;1.08;;;9.10;99.90;;;8.13;100.00;97885.34;5019617;28;20902;-75
2023/02/19 06:04:09;;;;;;;1.58;1.05;;;9.10;99.90;;;8.09;100.00;97876.28;5027870;28;20416;-75
2023/02/19 06:06:36;;;;;;;1.70;1.10;;;9.10;99.90;;;8.10;100.00;97880.53;5023392;28;20430;-74
2023/02/19 06:09:02;;;;;;;1.63;1.00;;;9.10;99.90;;;8.11;100.00;97881.34;5005969;28;20494;-74
2023/02/19 06:11:28;;;;;;;1.00;1.00;;;9.10;99.90;;;8.06;100.00;97884.63;5022928;28;20441;-75
2023/02/19 06:13:54;;;;;;;1.20;1.10;;;9.00;99.90;;;8.11;100.00;97894.53;5030261;28;20450;-74
2023/02/19 06:16:20;;;;;;;1.00;1.00;;;9.00;99.90;;;8.00;100.00;97892.63;5028187;28;20453;-74
2023/02/19 06:18:48;;;;;;;1.00;1.00;;;8.90;99.90;;;7.94;100.00;97902.22;5030559;28;20415;-74
2023/02/19 06:21:15;;;;;;;1.30;1.20;;;8.90;99.90;;;7.87;100.00;97917.31;5030719;28;20915;-73
2023/02/19 06:23:42;;;;;;;1.00;1.00;;;8.80;99.90;;;7.83;100.00;97912.69;5030751;28;20599;-72
2023/02/19 06:26:11;;;;;;;2.35;1.10;;;8.80;99.90;;;7.83;100.00;97921.41;5012957;28;20430;-73
2023/02/19 06:28:38;;;;;;;1.17;1.10;;;8.80;99.90;;;7.83;100.00;97918.78;5030339;28;20419;-72
2023/02/19 06:31:04;;;;;;;1.67;1.30;;;8.80;99.90;;;7.85;100.00;97914.09;5029434;28;20557;-73
2023/02/19 06:33:31;;;;;;;1.15;1.15;;;8.70;99.90;;;7.75;100.00;97926.97;5026063;28;20896;-73
2023/02/19 06:36:01;;;;;;;1.70;1.30;;;8.70;99.90;;;7.63;100.00;97918.19;5022239;28;20438;-73
2023/02/19 06:38:28;;;;;;;1.65;1.52;;;8.60;99.90;;;7.65;100.00;97916.16;5022586;28;20414;-73
2023/02/19 06:40:54;;;;;;;1.60;1.50;;;8.60;99.90;;;7.63;100.00;97918.19;5029490;28;20406;-73
2023/02/19 06:43:20;;;;;;;2.42;1.30;;;8.60;99.90;;;7.67;100.00;97914.88;5029906;28;20489;-73
2023/02/19 06:45:46;;;;;;;1.50;1.40;;;8.60;99.90;;;7.51;100.00;97923.38;5029782;28;20406;-73
2023/02/19 06:48:12;;;;;;;1.30;1.20;;;8.40;99.90;;;7.49;100.00;97933.31;5029124;28;20441;-72
2023/02/19 06:50:38;;;;;;;1.35;1.20;;;8.40;99.90;;;7.67;100.00;97930.69;5028961;28;20407;-73
2023/02/19 06:53:05;;;;;;;2.20;1.67;;;8.50;99.90;;;7.61;100.00;97941.31;5028043;28;20497;-73
2023/02/19 06:55:31;;;;;;;1.83;1.60;;;8.50;99.90;;;7.45;100.00;97953.22;5017927;28;20427;-76
2023/02/19 06:57:57;;;;;;;2.45;2.00;;;8.40;99.90;;;7.55;100.00;97956.16;5026162;28;20419;-74
2023/02/19 07:00:23;;;;;;;2.10;1.90;;;8.40;99.90;;;7.57;100.00;97967.28;5023783;28;20512;-74
2023/02/19 07:02:55;;;;;;;3.65;2.28;;;8.40;99.90;;;7.62;100.00;97969.25;5025398;28;20395;-72
2023/02/19 07:05:21;;;;;;;3.00;2.10;;;8.50;99.90;;;7.59;100.00;97967.09;5029956;28;20457;-74
2023/02/19 07:07:47;;;;;;;3.40;2.45;;;8.50;99.90;;;7.46;100.00;97972.44;5030287;28;20482;-73
2023/02/19 07:10:15;;;;;;;3.63;2.60;;;8.40;99.90;;;7.65;100.00;97969.66;5030190;28;20764;-74
2023/02/19 07:12:41;;;;;;;2.80;2.50;;;8.50;99.90;;;7.53;100.00;97970.56;5029969;28;20466;-74
2023/02/19 07:15:08;;;;;;;3.22;2.45;;;8.40;99.90;;;7.51;100.00;97985.81;5030099;28;20792;-75
2023/02/19 07:17:34;;;;;;;3.55;2.50;;;8.40;99.90;;;7.49;100.00;97985.19;5030223;28;20461;-74
2023/02/19 07:20:00;;;;;;;2.42;2.20;;;8.40;99.90;;;7.38;100.00;97974.34;5029973;28;20403;-74
2023/02/19 07:22:26;;;;;;;4.30;2.20;;;8.30;99.90;;;7.38;100.00;97978.81;5029935;28;20956;-76
2023/02/19 07:24:52;;;;;;;3.03;2.38;;;8.30;99.90;;;7.48;100.00;97988.84;5030209;28;20399;-74
2023/02/19 07:27:19;;;;;;;3.83;2.20;;;8.40;99.90;;;7.54;100.00;97982.72;5030013;28;20810;-76
2023/02/19 07:29:46;;;;;;;3.05;2.45;;;8.40;99.90;;;7.52;100.00;97982.16;5029770;28;20816;-76
2023/02/19 07:32:12;;;;;;;3.55;2.63;;;8.40;99.90;;;7.61;100.00;97986.09;5024505;28;20419;-75
2023/02/19 07:34:37;;;;;;;3.55;2.55;;;8.40;99.90;;;7.46;100.00;97991.69;5024328;28;20514;-75
2023/02/19 07:37:04;;;;;;;4.60;2.50;;;8.40;99.90;;;7.44;100.00;97985.88;5029766;28;20497;-76
2023/02/19 07:39:29;;;;;;;3.60;2.60;;;8.40;99.90;;;7.49;100.00;97988.66;5029894;28;20411;-73
2023/02/19 07:41:56;;;;;;;3.97;2.67;;;8.30;99.90;;;7.37;100.00;97999.06;5029639;28;20438;-73
2023/02/19 07:44:24;;;;;;;3.85;3.17;;;8.30;99.90;;;7.34;100.00;97973.19;5029862;28;20409;-73
2023/02/19 07:46:49;;;;;;;4.82;3.20;;;8.20;99.90;;;7.43;100.00;97973.72;5029802;28;20403;-74
2023/02/19 07:49:20;;;;;;;4.65;3.20;;;8.30;99.90;;;7.45;100.00;97984.00;5029812;28;20480;-75
2023/02/19 07:51:50;;;;;;;3.30;2.80;;;8.30;99.90;;;7.50;100.00;98000.00;5028406;28;20449;-74
2023/02/19 07:54:16;;;;;;;5.50;3.40;;;8.30;99.90;;;7.71;100.00;97996.94;5029781;28;20403;-76
2023/02/19 07:56:42;;;;;;;3.53;3.13;;;8.50;99.90;;;7.69;100.00;97999.00;5029676;28;20418;-74
2023/02/19 07:59:07;;;;;;;4.20;3.30;;;8.50;99.90;;;7.75;100.00;97998.91;5029747;28;20438;-76
2023/02/19 08:04:19;;;;;;;3.83;2.70;;;8.60;99.90;;;7.49;100.00;98004.44;5033301;28;20966;-75
2023/02/19 08:06:45;;;;;;;3.70;2.73;;;8.40;99.90;;;7.57;100.00;98001.53;5033311;28;20454;-75
2023/02/19 08:09:11;;;;;;;3.40;2.63;;;8.40;99.90;;;7.56;100.00;98001.75;5033042;28;20435;-74
2023/02/19 08:14:26;;;;;;;6.10;2.83;;;8.60;99.90;;;7.73;100.00;98003.63;5032986;28;20414;-76
2023/02/19 08:16:54;;;;;;;2.80;2.25;;;8.60;99.90;;;7.80;100.00;98014.09;5032921;28;20406;-74
2023/02/19 08:19:20;;;;;;;2.73;2.40;;;8.70;99.90;;;7.74;100.00;98021.03;5032940;28;20403;-74
2023/02/19 08:21:46;;;;;;;4.57;2.30;;;8.60;99.90;;;7.69;100.00;98012.97;5032641;28;20930;-74
2023/02/19 08:24:12;;;;;;;3.00;2.40;;;8.60;99.90;;;7.75;100.00;98013.94;5033017;28;20402;-74
2023/02/19 08:26:38;;;;;;;3.90;2.50;;;8.60;99.90;;;7.86;100.00;98017.69;5032846;28;20915;-74
2023/02/19 08:29:05;;;;;;;3.00;2.45;;;8.70;99.90;;;8.13;100.00;98019.81;5032667;28;20415;-73
2023/02/19 08:31:31;;;;;;;4.10;3.33;;;8.90;99.90;;;8.10;100.00;98024.75;5030204;28;20790;-76
2023/02/19 08:33:58;;;;;;;3.60;2.03;;;9.00;99.90;;;8.01;100.00;98037.41;4997696;28;20511;-75
2023/02/19 08:36:25;;;;;;;2.95;1.90;;;8.90;99.90;;;8.08;100.00;98037.34;5012893;28;21004;-74
2023/02/19 08:38:51;;;;;;;3.03;1.67;;;8.90;99.90;;;7.89;100.00;98043.63;5012831;28;20440;-75
2023/02/19 08:41:17;;;;;;;2.38;1.67;;;8.80;99.90;;;7.90;100.00;98045.22;5012783;28;20405;-73
2023/02/19 08:43:42;;;;;;;2.00;1.50;;;8.70;99.90;;;7.92;100.00;98037.91;5012694;28;20411;-72
2023/02/19 08:46:10;;;;;;;1.97;1.80;;;8.80;99.90;;;8.23;100.00;98048.31;5020627;28;21079;-72
2023/02/19 08:48:37;;;;;;;2.67;1.70;;;9.10;99.90;;;8.26;100.00;98057.66;5025865;28;20404;-73
2023/02/19 08:51:08;;;;;;;3.42;1.60;;;9.10;99.90;;;8.21;100.00;98039.81;5021705;28;21029;-79
2023/02/19 08:53:36;;;;;;;1.83;1.63;;;9.10;99.90;;;8.15;100.00;98040.72;5027641;28;20516;-74
2023/02/19 08:56:04;;;;;;;3.15;1.70;;;9.10;99.90;;;8.02;100.00;98048.75;5023936;28;20456;-73
2023/02/19 08:58:31;;;;;;;2.90;1.55;;;8.90;99.90;;;7.91;100.00;98046.81;5003529;28;20407;-73
2023/02/19 09:00:57;;;;;;;2.30;1.70;;;8.80;99.90;;;8.02;100.00;98065.38;5022895;28;20498;-74
2023/02/19 09:03:23;;;;;;;2.42;1.70;;;8.80;99.90;;;7.92;100.00;98051.88;5021690;28;20495;-73
2023/02/19 09:05:49;;;;;;;3.95;2.00;;;8.80;99.90;;;8.02;100.00;98068.03;5021956;28;20392;-73
2023/02/19 09:08:17;;;;;;;1.90;1.80;;;8.90;99.90;;;8.10;100.00;98070.38;5022609;28;20890;-73
2023/02/19 09:10:43;;;;;;;4.28;1.83;;;9.00;99.90;;;8.08;100.00;98072.41;5020717;28;20408;-73
2023/02/19 09:13:08;;;;;;;2.13;1.90;;;9.00;99.90;;;8.04;100.00;98067.81;5020841;28;20403;-73
2023/02/19 09:15:36;;;;;;;2.90;1.75;;;8.90;99.90;;;8.15;100.00;98083.72;5022262;28;20428;-73
2023/02/19 09:18:01;;;;;;;3.88;2.20;;;9.00;99.90;;;8.23;100.00;98087.88;5020282;28;20397;-73
2023/02/19 09:20:27;;;;;;;4.30;2.20;;;9.10;99.90;;;8.36;100.00;98086.97;5021729;28;20745;-73
2023/02/19 09:22:57;;;;;;;2.30;2.10;;;9.20;99.90;;;8.36;100.00;98084.31;5024235;28;20409;-73
2023/02/19 09:25:24;;;;;;;6.10;2.30;;;9.30;99.90;;;8.29;100.00;98079.09;5027582;28;20465;-73
2023/02/19 09:27:54;;;;;;;4.97;2.22;;;9.20;99.90;;;8.51;100.00;98080.31;5025513;28;21031;-73
2023/02/19 09:30:20;;;;;;;6.83;2.30;;;9.30;99.90;;;8.59;100.00;98078.38;5023508;28;20417;-73
2023/02/19 09:32:46;;;;;;;3.33;2.00;;;9.40;99.90;;;8.63;100.00;98084.84;5023635;28;20466;-73
2023/02/19 09:35:12;;;;;;;5.30;2.13;;;9.40;99.90;;;8.56;100.00;98086.75;5019917;28;20487;-74
2023/02/19 09:37:38;;;;;;;5.35;2.50;;;9.40;99.90;;;8.66;100.00;98087.84;5020288;28;20841;-73
2023/02/19 09:40:04;;;;;;;3.73;1.90;;;9.50;99.90;;;8.65;100.00;98080.94;5022290;28;20459;-73
2023/02/19 09:42:32;;;;;;;3.80;2.13;;;9.50;99.90;;;8.75;100.00;98088.34;5022268;28;20474;-73
2023/02/19 09:45:00;;;;;;;3.80;1.87;;;9.60;99.90;;;8.97;100.00;98093.97;5013171;28;20436;-73
2023/02/19 09:47:29;;;;;;;4.80;1.80;;;9.70;99.90;;;9.06;100.00;98082.06;5011429;28;21045;-72
2023/02/19 09:49:59;;;;;;;6.90;2.33;;;9.90;99.90;;;8.90;100.00;98086.13;5011500;28;20409;-73
2023/02/19 09:52:32;;;;;;;4.70;1.73;;;9.80;99.90;;;8.87;100.00;98097.16;4993646;28;20467;-73
2023/02/19 09:55:02;;;;;;;5.68;2.00;;;9.70;99.90;;;8.95;100.00;98090.75;5011285;28;20444;-72
2023/02/19 09:57:33;;;;;;;8.75;2.20;;;9.70;99.90;;;8.81;100.00;98101.47;5026213;28;20418;-73
2023/02/19 10:00:20;;;;;;;6.35;2.10;;;9.70;99.90;;;9.00;100.00;98091.69;5030726;28;20804;-72
2023/02/19 10:02:46;;;;;;;6.70;2.10;;;9.90;99.90;;;9.12;100.00;98089.91;5030189;28;20407;-72
2023/02/19 10:05:14;;;;;;;3.72;1.70;;;9.90;99.90;;;9.44;100.00;98108.97;5030955;28;20843;-73
2023/02/19 10:07:46;;;;;;;4.20;1.55;;;10.20;99.90;;;9.61;100.00;98088.78;5030895;28;20742;-73
2023/02/19 10:10:28;;;;;;;5.53;2.08;;;10.40;99.90;;;9.77;100.00;98083.84;5030984;28;20759;-73
2023/02/19 10:13:12;;;;;;;5.22;1.90;;;10.60;99.90;;;10.00;100.00;98079.38;5030706;28;20886;-73
2023/02/19 10:15:45;;;;;;;7.75;2.00;;;10.80;99.90;;;9.99;100.00;98075.13;5030660;28;20521;-73
2023/02/19 10:18:11;;;;;;;4.78;1.85;;;10.90;99.90;;;10.12;100.00;98095.25;5030887;28;20849;-73
2023/02/19 10:20:38;;;;;;;4.18;1.70;;;11.00;99.90;;;10.07;100.00;98090.63;5030747;28;20927;-73
2023/02/19 10:23:07;;;;;;;4.00;1.90;;;10.90;99.90;;;9.88;100.00;98096.28;5030040;28;20406;-74
2023/02/19 10:25:35;;;;;;;5.63;1.73;;;10.80;99.90;;;9.80;100.00;98102.69;5030207;28;20938;-74
2023/02/19 10:28:05;;;;;;;3.17;1.30;;;10.70;99.90;;;9.98;100.00;98093.88;5030732;28;20414;-73
2023/02/19 10:30:34;;;;;;;5.70;1.70;;;10.70;99.90;;;9.94;100.00;98104.09;5030504;28;20562;-74
2023/02/19 10:33:08;;;;;;;4.45;1.90;;;10.70;99.90;;;10.15;100.00;98105.34;5030386;28;20879;-73
2023/02/19 10:35:36;;;;;;;6.10;1.88;;;10.90;99.90;;;10.11;100.00;98101.56;5030563;28;20509;-74
2023/02/19 10:38:05;;;;;;;3.90;1.65;;;10.90;99.90;;;10.20;100.00;98104.72;5030571;28;20924;-74
2023/02/19 10:40:32;;;;;;;4.50;2.20;;;11.00;99.90;;;10.07;100.00;98111.00;5030490;28;20403;-73
2023/02/19 10:43:03;;;;;;;5.40;1.80;;;10.90;99.90;;;10.31;100.00;98112.63;5030218;28;20942;-74
2023/02/19 10:45:37;;;;;;;5.05;1.73;;;11.10;99.90;;;10.38;100.00;98121.25;5030499;28;20485;-74
2023/02/19 10:48:04;;;;;;;6.18;1.92;;;11.20;99.90;;;10.42;100.00;98124.25;5030213;28;20899;-74
2023/02/19 10:50:38;;;;;;;3.73;1.63;;;11.30;99.90;;;10.88;100.00;98141.91;5030378;28;20475;-74
2023/02/19 10:53:04;;;;;;;3.92;1.73;;;11.70;99.90;;;11.41;100.00;98141.63;5029904;28;20786;-73
2023/02/19 10:55:33;;;;;;;6.00;1.85;;;12.20;99.90;;;11.58;100.00;98137.13;5026401;28;20417;-74